Airfield :
LOGIN :

Register | Disclaimer

   EN    FR    IT 

 










Legend :    VFR   Marginal VFR   IFR   Intensive IFR   Very Intensive IFR
Visi :
Ceiling :
>= 8 km
>= 3000ft
5 to 8 km
1000 to 3000 ft
1500m to 5 km
500 to 1000 ft
800 to 1500m
200 to 500 ft
< 800m
< 200 ft
Symbols :   Thunderstorms  Fog  Heavy snow  Heavy precipitations  Wind > 20 kt
SIGMETs :     Misc.  Thunderstorms  Icing  Turbulence  Mountain Waves  Volcanic Ashes







- Airport Elevation : 374 ft
- IATA code : LIS


LPPT - Lisboa Portela

CURRENT METAR :
  • 171400Z 22007KT 180V330 9999 FEW045 26/13 Q1015

EXPIRED METARs :
  • 171330Z VRB06KT 9999 FEW040 26/13 Q1015
  • 171300Z 20006KT 150V250 9999 FEW040 26/14 Q1016
  • 171230Z 27005KT 210V330 9999 FEW040 25/15 Q1016
  • 171200Z 20005KT 100V270 CAVOK 25/15 Q1016
  • 171130Z 20005KT 140V270 CAVOK 24/15 Q1016

TAF TAF LPPT
Valid from the 17 at 12:00 until the 18 at 18:00 UTC


171100Z 1712/1818 24008KT CAVOK
BECMG 1716/1718 30010KT
BECMG 1718/1721 33005KT
BECMG 1800/1802 9999 SCT012
BECMG 1808/1810 12005KT CAVOK
BECMG 1812/1814 23008KT
No reported NOTAMs for that airfield.



MET'MAP, your aeronautical weather chart ! - Copyright ORBIFLY December 2007 - Disclaimer

ORBIFLY MET'MAP TEAM :

Programming & Development : Alexandra Zaïnal
Concept & Development : Baudouin d'Aumeries
Co-Development & Prog : Marc-Olivier Méhu
Technical & hardware support : Manuel Goepfert

Contact : metmap@orbifly.com




SOURCES & CREDITS :

   NOAA